sensor_id;sensor_type;location;lat;lon;timestamp;P1;durP1;ratioP1;P2;durP2;ratioP2
65658;SDS011;60181;53.258;6.932;2023-03-01T00:01:38;5.60;;;2.70;;
65658;SDS011;60181;53.258;6.932;2023-03-01T00:05:45;4.30;;;2.60;;
65658;SDS011;60181;53.258;6.932;2023-03-01T00:09:46;4.30;;;2.60;;
65658;SDS011;60181;53.258;6.932;2023-03-01T00:13:50;7.20;;;2.70;;
65658;SDS011;60181;53.258;6.932;2023-03-01T00:17:53;7.20;;;2.70;;
65658;SDS011;60181;53.258;6.932;2023-03-01T00:21:57;7.20;;;2.70;;
65658;SDS011;60181;53.258;6.932;2023-03-01T00:26:02;5.60;;;2.80;;
65658;SDS011;60181;53.258;6.932;2023-03-01T00:30:06;5.60;;;2.80;;
65658;SDS011;60181;53.258;6.932;2023-03-01T00:34:09;6.10;;;2.80;;
65658;SDS011;60181;53.258;6.932;2023-03-01T00:38:13;6.10;;;2.80;;
65658;SDS011;60181;53.258;6.932;2023-03-01T00:42:17;6.10;;;2.80;;
65658;SDS011;60181;53.258;6.932;2023-03-01T00:46:23;5.80;;;2.90;;
65658;SDS011;60181;53.258;6.932;2023-03-01T00:50:25;5.80;;;2.90;;
65658;SDS011;60181;53.258;6.932;2023-03-01T00:54:29;5.90;;;3.00;;
65658;SDS011;60181;53.258;6.932;2023-03-01T00:58:34;5.90;;;3.00;;
65658;SDS011;60181;53.258;6.932;2023-03-01T01:02:37;5.90;;;3.00;;
65658;SDS011;60181;53.258;6.932;2023-03-01T01:06:42;5.40;;;3.00;;
65658;SDS011;60181;53.258;6.932;2023-03-01T01:10:46;5.40;;;3.00;;
65658;SDS011;60181;53.258;6.932;2023-03-01T01:14:49;4.90;;;2.80;;
65658;SDS011;60181;53.258;6.932;2023-03-01T01:18:53;4.90;;;2.80;;
65658;SDS011;60181;53.258;6.932;2023-03-01T01:22:57;4.90;;;2.80;;
65658;SDS011;60181;53.258;6.932;2023-03-01T01:27:01;4.70;;;2.90;;
65658;SDS011;60181;53.258;6.932;2023-03-01T01:31:05;4.70;;;2.90;;
65658;SDS011;60181;53.258;6.932;2023-03-01T01:35:09;6.60;;;3.20;;
65658;SDS011;60181;53.258;6.932;2023-03-01T01:39:13;6.60;;;3.20;;
65658;SDS011;60181;53.258;6.932;2023-03-01T01:43:20;7.00;;;3.10;;
65658;SDS011;60181;53.258;6.932;2023-03-01T01:47:21;7.00;;;3.10;;
65658;SDS011;60181;53.258;6.932;2023-03-01T01:51:28;7.00;;;3.10;;
65658;SDS011;60181;53.258;6.932;2023-03-01T01:55:29;5.90;;;3.00;;
65658;SDS011;60181;53.258;6.932;2023-03-01T01:59:33;5.90;;;3.00;;
65658;SDS011;60181;53.258;6.932;2023-03-01T02:03:38;6.70;;;3.00;;
65658;SDS011;60181;53.258;6.932;2023-03-01T02:07:41;6.70;;;3.00;;
65658;SDS011;60181;53.258;6.932;2023-03-01T02:11:45;6.70;;;3.00;;
65658;SDS011;60181;53.258;6.932;2023-03-01T02:15:49;4.40;;;2.70;;
65658;SDS011;60181;53.258;6.932;2023-03-01T02:23:58;4.90;;;2.90;;
65658;SDS011;60181;53.258;6.932;2023-03-01T02:28:10;4.90;;;2.90;;
65658;SDS011;60181;53.258;6.932;2023-03-01T02:32:05;4.90;;;2.90;;
65658;SDS011;60181;53.258;6.932;2023-03-01T02:36:10;6.30;;;2.80;;
65658;SDS011;60181;53.258;6.932;2023-03-01T02:40:15;6.30;;;2.80;;
65658;SDS011;60181;53.258;6.932;2023-03-01T02:44:17;5.70;;;3.00;;
65658;SDS011;60181;53.258;6.932;2023-03-01T02:48:21;5.70;;;3.00;;
65658;SDS011;60181;53.258;6.932;2023-03-01T02:56:29;8.40;;;3.00;;
65658;SDS011;60181;53.258;6.932;2023-03-01T03:00:37;8.40;;;3.00;;
65658;SDS011;60181;53.258;6.932;2023-03-01T03:04:37;5.60;;;2.60;;
65658;SDS011;60181;53.258;6.932;2023-03-01T03:08:41;5.60;;;2.60;;
65658;SDS011;60181;53.258;6.932;2023-03-01T03:12:52;5.60;;;2.60;;
65658;SDS011;60181;53.258;6.932;2023-03-01T03:16:49;4.70;;;2.70;;
65658;SDS011;60181;53.258;6.932;2023-03-01T03:20:53;4.70;;;2.70;;
65658;SDS011;60181;53.258;6.932;2023-03-01T03:24:57;4.70;;;2.80;;
65658;SDS011;60181;53.258;6.932;2023-03-01T03:29:01;4.70;;;2.80;;
65658;SDS011;60181;53.258;6.932;2023-03-01T03:33:05;4.70;;;2.80;;
65658;SDS011;60181;53.258;6.932;2023-03-01T03:37:09;6.00;;;2.70;;
65658;SDS011;60181;53.258;6.932;2023-03-01T03:41:13;6.00;;;2.70;;
65658;SDS011;60181;53.258;6.932;2023-03-01T03:45:17;4.60;;;2.60;;
65658;SDS011;60181;53.258;6.932;2023-03-01T03:49:21;4.60;;;2.60;;
65658;SDS011;60181;53.258;6.932;2023-03-01T03:53:26;5.00;;;2.60;;
65658;SDS011;60181;53.258;6.932;2023-03-01T03:57:29;5.00;;;2.60;;
65658;SDS011;60181;53.258;6.932;2023-03-01T04:01:33;5.00;;;2.60;;
65658;SDS011;60181;53.258;6.932;2023-03-01T04:05:37;6.90;;;2.50;;
65658;SDS011;60181;53.258;6.932;2023-03-01T04:09:42;6.90;;;2.50;;
65658;SDS011;60181;53.258;6.932;2023-03-01T04:13:45;7.20;;;2.90;;
65658;SDS011;60181;53.258;6.932;2023-03-01T04:17:49;7.20;;;2.90;;
65658;SDS011;60181;53.258;6.932;2023-03-01T04:21:53;7.20;;;2.90;;
65658;SDS011;60181;53.258;6.932;2023-03-01T04:25:57;7.90;;;3.00;;
65658;SDS011;60181;53.258;6.932;2023-03-01T04:30:02;7.90;;;3.00;;
65658;SDS011;60181;53.258;6.932;2023-03-01T04:34:05;6.50;;;2.90;;
65658;SDS011;60181;53.258;6.932;2023-03-01T04:38:09;6.50;;;2.90;;
65658;SDS011;60181;53.258;6.932;2023-03-01T04:42:14;6.50;;;2.90;;
65658;SDS011;60181;53.258;6.932;2023-03-01T04:46:18;5.20;;;3.00;;
65658;SDS011;60181;53.258;6.932;2023-03-01T04:50:21;5.20;;;3.00;;
65658;SDS011;60181;53.258;6.932;2023-03-01T04:54:25;9.00;;;3.10;;
65658;SDS011;60181;53.258;6.932;2023-03-01T04:58:29;9.00;;;3.10;;
65658;SDS011;60181;53.258;6.932;2023-03-01T05:02:33;9.00;;;3.10;;
65658;SDS011;60181;53.258;6.932;2023-03-01T05:06:37;7.00;;;3.10;;
65658;SDS011;60181;53.258;6.932;2023-03-01T05:10:41;7.00;;;3.10;;
65658;SDS011;60181;53.258;6.932;2023-03-01T05:14:45;6.30;;;3.40;;
65658;SDS011;60181;53.258;6.932;2023-03-01T05:18:49;6.30;;;3.40;;
65658;SDS011;60181;53.258;6.932;2023-03-01T05:22:55;6.30;;;3.40;;
65658;SDS011;60181;53.258;6.932;2023-03-01T05:26:57;5.50;;;3.00;;
65658;SDS011;60181;53.258;6.932;2023-03-01T05:31:01;5.50;;;3.00;;
65658;SDS011;60181;53.258;6.932;2023-03-01T05:35:05;9.10;;;3.20;;
65658;SDS011;60181;53.258;6.932;2023-03-01T05:39:09;9.10;;;3.20;;
65658;SDS011;60181;53.258;6.932;2023-03-01T05:43:14;6.40;;;3.10;;
65658;SDS011;60181;53.258;6.932;2023-03-01T05:47:17;6.40;;;3.10;;
65658;SDS011;60181;53.258;6.932;2023-03-01T05:51:21;6.40;;;3.10;;
65658;SDS011;60181;53.258;6.932;2023-03-01T05:55:26;6.90;;;3.10;;
65658;SDS011;60181;53.258;6.932;2023-03-01T05:59:29;6.90;;;3.10;;
65658;SDS011;60181;53.258;6.932;2023-03-01T06:03:33;5.90;;;3.00;;
65658;SDS011;60181;53.258;6.932;2023-03-01T06:07:37;5.90;;;3.00;;
65658;SDS011;60181;53.258;6.932;2023-03-01T06:11:41;5.90;;;3.00;;
65658;SDS011;60181;53.258;6.932;2023-03-01T06:15:45;5.20;;;2.50;;
65658;SDS011;60181;53.258;6.932;2023-03-01T06:19:49;5.20;;;2.50;;
65658;SDS011;60181;53.258;6.932;2023-03-01T06:23:53;5.40;;;2.90;;
65658;SDS011;60181;53.258;6.932;2023-03-01T06:27:57;5.40;;;2.90;;
65658;SDS011;60181;53.258;6.932;2023-03-01T06:32:02;5.40;;;2.90;;
65658;SDS011;60181;53.258;6.932;2023-03-01T06:36:05;5.30;;;2.80;;
65658;SDS011;60181;53.258;6.932;2023-03-01T06:40:10;5.30;;;2.80;;
65658;SDS011;60181;53.258;6.932;2023-03-01T06:44:13;4.90;;;2.80;;
65658;SDS011;60181;53.258;6.932;2023-03-01T06:48:17;4.90;;;2.80;;
65658;SDS011;60181;53.258;6.932;2023-03-01T06:52:21;4.90;;;2.80;;
65658;SDS011;60181;53.258;6.932;2023-03-01T06:56:25;4.10;;;2.40;;
65658;SDS011;60181;53.258;6.932;2023-03-01T07:00:29;4.10;;;2.40;;
65658;SDS011;60181;53.258;6.932;2023-03-01T07:04:33;4.30;;;2.50;;
65658;SDS011;60181;53.258;6.932;2023-03-01T07:08:37;4.30;;;2.50;;
65658;SDS011;60181;53.258;6.932;2023-03-01T07:12:41;4.30;;;2.50;;
65658;SDS011;60181;53.258;6.932;2023-03-01T07:16:45;3.50;;;2.30;;
65658;SDS011;60181;53.258;6.932;2023-03-01T07:20:49;3.50;;;2.30;;
65658;SDS011;60181;53.258;6.932;2023-03-01T07:24:53;4.70;;;2.10;;
65658;SDS011;60181;53.258;6.932;2023-03-01T07:29:00;4.70;;;2.10;;
65658;SDS011;60181;53.258;6.932;2023-03-01T07:33:01;4.70;;;2.10;;
65658;SDS011;60181;53.258;6.932;2023-03-01T07:37:05;4.30;;;2.20;;
65658;SDS011;60181;53.258;6.932;2023-03-01T07:41:09;4.30;;;2.20;;
65658;SDS011;60181;53.258;6.932;2023-03-01T07:45:13;3.90;;;2.00;;
65658;SDS011;60181;53.258;6.932;2023-03-01T07:49:17;3.90;;;2.00;;
65658;SDS011;60181;53.258;6.932;2023-03-01T07:53:21;3.70;;;2.30;;
65658;SDS011;60181;53.258;6.932;2023-03-01T07:57:25;3.70;;;2.30;;
65658;SDS011;60181;53.258;6.932;2023-03-01T08:01:29;3.70;;;2.30;;
65658;SDS011;60181;53.258;6.932;2023-03-01T08:05:33;4.70;;;2.30;;
65658;SDS011;60181;53.258;6.932;2023-03-01T08:09:37;4.70;;;2.30;;
65658;SDS011;60181;53.258;6.932;2023-03-01T08:13:41;4.70;;;2.40;;
65658;SDS011;60181;53.258;6.932;2023-03-01T08:17:45;4.70;;;2.40;;
65658;SDS011;60181;53.258;6.932;2023-03-01T08:21:49;4.70;;;2.40;;
65658;SDS011;60181;53.258;6.932;2023-03-01T08:25:53;5.10;;;2.30;;
65658;SDS011;60181;53.258;6.932;2023-03-01T08:29:57;5.10;;;2.30;;
65658;SDS011;60181;53.258;6.932;2023-03-01T08:34:02;3.60;;;2.20;;
65658;SDS011;60181;53.258;6.932;2023-03-01T08:38:05;3.60;;;2.20;;
65658;SDS011;60181;53.258;6.932;2023-03-01T08:42:09;3.60;;;2.20;;
65658;SDS011;60181;53.258;6.932;2023-03-01T08:46:13;3.40;;;2.00;;
65658;SDS011;60181;53.258;6.932;2023-03-01T08:50:17;3.40;;;2.00;;
65658;SDS011;60181;53.258;6.932;2023-03-01T08:54:21;5.50;;;2.20;;
65658;SDS011;60181;53.258;6.932;2023-03-01T08:58:25;5.50;;;2.20;;
65658;SDS011;60181;53.258;6.932;2023-03-01T09:02:29;5.50;;;2.20;;
65658;SDS011;60181;53.258;6.932;2023-03-01T09:06:33;9.20;;;2.40;;
65658;SDS011;60181;53.258;6.932;2023-03-01T09:10:37;9.20;;;2.40;;
65658;SDS011;60181;53.258;6.932;2023-03-01T09:14:41;14.60;;;2.60;;
65658;SDS011;60181;53.258;6.932;2023-03-01T09:18:45;14.60;;;2.60;;
65658;SDS011;60181;53.258;6.932;2023-03-01T09:22:49;14.60;;;2.60;;
65658;SDS011;60181;53.258;6.932;2023-03-01T09:26:54;8.10;;;2.40;;
65658;SDS011;60181;53.258;6.932;2023-03-01T09:30:57;8.10;;;2.40;;
65658;SDS011;60181;53.258;6.932;2023-03-01T09:35:01;8.70;;;2.50;;
65658;SDS011;60181;53.258;6.932;2023-03-01T09:39:05;8.70;;;2.50;;
65658;SDS011;60181;53.258;6.932;2023-03-01T09:43:14;8.70;;;2.50;;
65658;SDS011;60181;53.258;6.932;2023-03-01T09:47:31;9.40;;;2.30;;
65658;SDS011;60181;53.258;6.932;2023-03-01T09:51:23;9.40;;;2.30;;
65658;SDS011;60181;53.258;6.932;2023-03-01T09:55:25;7.50;;;2.30;;
65658;SDS011;60181;53.258;6.932;2023-03-01T10:03:34;8.00;;;2.50;;
65658;SDS011;60181;53.258;6.932;2023-03-01T10:07:44;8.00;;;2.50;;
65658;SDS011;60181;53.258;6.932;2023-03-01T10:11:38;8.00;;;2.50;;
65658;SDS011;60181;53.258;6.932;2023-03-01T10:15:43;8.80;;;2.60;;
65658;SDS011;60181;53.258;6.932;2023-03-01T10:19:46;8.80;;;2.60;;
65658;SDS011;60181;53.258;6.932;2023-03-01T10:23:49;5.60;;;2.70;;
65658;SDS011;60181;53.258;6.932;2023-03-01T10:27:53;5.60;;;2.70;;
65658;SDS011;60181;53.258;6.932;2023-03-01T10:31:57;5.60;;;2.70;;
65658;SDS011;60181;53.258;6.932;2023-03-01T10:36:01;6.10;;;2.60;;
65658;SDS011;60181;53.258;6.932;2023-03-01T10:40:08;6.10;;;2.60;;
65658;SDS011;60181;53.258;6.932;2023-03-01T10:44:09;5.90;;;2.90;;
65658;SDS011;60181;53.258;6.932;2023-03-01T10:48:19;5.90;;;2.90;;
65658;SDS011;60181;53.258;6.932;2023-03-01T10:52:21;5.90;;;2.90;;
65658;SDS011;60181;53.258;6.932;2023-03-01T10:56:21;7.00;;;3.20;;
65658;SDS011;60181;53.258;6.932;2023-03-01T11:00:25;7.00;;;3.20;;
65658;SDS011;60181;53.258;6.932;2023-03-01T11:04:29;7.80;;;3.20;;
65658;SDS011;60181;53.258;6.932;2023-03-01T11:08:40;7.80;;;3.20;;
65658;SDS011;60181;53.258;6.932;2023-03-01T11:12:37;7.80;;;3.20;;
65658;SDS011;60181;53.258;6.932;2023-03-01T11:16:41;5.60;;;3.00;;
65658;SDS011;60181;53.258;6.932;2023-03-01T11:20:45;5.60;;;3.00;;
65658;SDS011;60181;53.258;6.932;2023-03-01T11:24:52;6.50;;;3.10;;
65658;SDS011;60181;53.258;6.932;2023-03-01T11:28:54;6.50;;;3.10;;
65658;SDS011;60181;53.258;6.932;2023-03-01T11:33:01;6.50;;;3.10;;
65658;SDS011;60181;53.258;6.932;2023-03-01T11:37:01;5.90;;;3.10;;
65658;SDS011;60181;53.258;6.932;2023-03-01T11:41:10;5.90;;;3.10;;
65658;SDS011;60181;53.258;6.932;2023-03-01T11:45:10;6.80;;;3.00;;
65658;SDS011;60181;53.258;6.932;2023-03-01T12:13:44;5.40;;;3.00;;
65658;SDS011;60181;53.258;6.932;2023-03-01T12:25:58;4.70;;;2.60;;
65658;SDS011;60181;53.258;6.932;2023-03-01T12:29:59;4.70;;;2.60;;
65658;SDS011;60181;53.258;6.932;2023-03-01T12:33:59;5.90;;;2.60;;
65658;SDS011;60181;53.258;6.932;2023-03-01T12:42:25;5.90;;;2.60;;
65658;SDS011;60181;53.258;6.932;2023-03-01T12:50:23;4.10;;;2.40;;
65658;SDS011;60181;53.258;6.932;2023-03-01T12:54:26;4.90;;;2.60;;
65658;SDS011;60181;53.258;6.932;2023-03-01T12:58:26;4.90;;;2.60;;
65658;SDS011;60181;53.258;6.932;2023-03-01T13:02:31;4.90;;;2.60;;
65658;SDS011;60181;53.258;6.932;2023-03-01T13:06:39;4.10;;;2.30;;
65658;SDS011;60181;53.258;6.932;2023-03-01T13:10:33;4.10;;;2.30;;
65658;SDS011;60181;53.258;6.932;2023-03-01T13:14:37;4.50;;;2.70;;
65658;SDS011;60181;53.258;6.932;2023-03-01T13:18:40;4.50;;;2.70;;
65658;SDS011;60181;53.258;6.932;2023-03-01T13:22:45;4.50;;;2.70;;
65658;SDS011;60181;53.258;6.932;2023-03-01T13:27:10;5.80;;;2.20;;
65658;SDS011;60181;53.258;6.932;2023-03-01T13:30:52;5.80;;;2.20;;
65658;SDS011;60181;53.258;6.932;2023-03-01T13:35:00;7.10;;;2.90;;
65658;SDS011;60181;53.258;6.932;2023-03-01T13:39:04;7.10;;;2.90;;
65658;SDS011;60181;53.258;6.932;2023-03-01T13:43:23;7.10;;;2.90;;
65658;SDS011;60181;53.258;6.932;2023-03-01T13:47:16;4.60;;;2.50;;
65658;SDS011;60181;53.258;6.932;2023-03-01T13:51:12;4.60;;;2.50;;
65658;SDS011;60181;53.258;6.932;2023-03-01T13:55:19;6.30;;;2.50;;
65658;SDS011;60181;53.258;6.932;2023-03-01T13:59:21;6.30;;;2.50;;
65658;SDS011;60181;53.258;6.932;2023-03-01T14:03:24;5.70;;;2.50;;
65658;SDS011;60181;53.258;6.932;2023-03-01T14:07:28;5.70;;;2.50;;
65658;SDS011;60181;53.258;6.932;2023-03-01T14:15:41;4.70;;;2.50;;
65658;SDS011;60181;53.258;6.932;2023-03-01T14:19:40;4.70;;;2.50;;
65658;SDS011;60181;53.258;6.932;2023-03-01T14:23:44;4.70;;;2.50;;
65658;SDS011;60181;53.258;6.932;2023-03-01T14:27:55;4.70;;;2.50;;
65658;SDS011;60181;53.258;6.932;2023-03-01T14:31:52;4.70;;;2.50;;
65658;SDS011;60181;53.258;6.932;2023-03-01T14:36:00;6.60;;;2.50;;
65658;SDS011;60181;53.258;6.932;2023-03-01T14:40:02;6.60;;;2.50;;
65658;SDS011;60181;53.258;6.932;2023-03-01T14:44:06;6.60;;;2.80;;
65658;SDS011;60181;53.258;6.932;2023-03-01T14:48:08;6.60;;;2.80;;
65658;SDS011;60181;53.258;6.932;2023-03-01T14:52:20;6.60;;;2.80;;
65658;SDS011;60181;53.258;6.932;2023-03-01T14:56:17;5.40;;;2.90;;
65658;SDS011;60181;53.258;6.932;2023-03-01T15:00:22;5.40;;;2.90;;
65658;SDS011;60181;53.258;6.932;2023-03-01T15:04:24;8.90;;;3.10;;
65658;SDS011;60181;53.258;6.932;2023-03-01T15:08:28;8.90;;;3.10;;
65658;SDS011;60181;53.258;6.932;2023-03-01T15:12:36;8.90;;;3.10;;
65658;SDS011;60181;53.258;6.932;2023-03-01T15:16:38;5.90;;;2.80;;
65658;SDS011;60181;53.258;6.932;2023-03-01T15:20:40;5.90;;;2.80;;
65658;SDS011;60181;53.258;6.932;2023-03-01T15:24:48;4.50;;;2.70;;
65658;SDS011;60181;53.258;6.932;2023-03-01T15:28:49;4.50;;;2.70;;
65658;SDS011;60181;53.258;6.932;2023-03-01T15:36:58;6.30;;;3.10;;
65658;SDS011;60181;53.258;6.932;2023-03-01T15:41:01;6.30;;;3.10;;
65658;SDS011;60181;53.258;6.932;2023-03-01T15:49:24;5.40;;;2.80;;
65658;SDS011;60181;53.258;6.932;2023-03-01T15:53:13;5.90;;;2.60;;
65658;SDS011;60181;53.258;6.932;2023-03-01T15:57:16;5.90;;;2.60;;
65658;SDS011;60181;53.258;6.932;2023-03-01T16:01:20;5.90;;;2.60;;
65658;SDS011;60181;53.258;6.932;2023-03-01T16:05:26;5.70;;;2.60;;
65658;SDS011;60181;53.258;6.932;2023-03-01T16:09:28;5.70;;;2.60;;
65658;SDS011;60181;53.258;6.932;2023-03-01T16:13:32;5.20;;;2.70;;
65658;SDS011;60181;53.258;6.932;2023-03-01T16:17:36;5.20;;;2.70;;
65658;SDS011;60181;53.258;6.932;2023-03-01T16:21:40;5.20;;;2.70;;
65658;SDS011;60181;53.258;6.932;2023-03-01T16:25:44;4.50;;;2.40;;
65658;SDS011;60181;53.258;6.932;2023-03-01T16:29:48;4.50;;;2.40;;
65658;SDS011;60181;53.258;6.932;2023-03-01T16:33:53;5.10;;;2.70;;
65658;SDS011;60181;53.258;6.932;2023-03-01T16:37:56;5.10;;;2.70;;
65658;SDS011;60181;53.258;6.932;2023-03-01T16:42:00;5.10;;;2.70;;
65658;SDS011;60181;53.258;6.932;2023-03-01T16:46:11;4.50;;;2.50;;
65658;SDS011;60181;53.258;6.932;2023-03-01T16:50:09;4.50;;;2.50;;
65658;SDS011;60181;53.258;6.932;2023-03-01T16:54:12;4.10;;;2.50;;
65658;SDS011;60181;53.258;6.932;2023-03-01T16:58:16;4.10;;;2.50;;
65658;SDS011;60181;53.258;6.932;2023-03-01T17:02:20;4.10;;;2.50;;
65658;SDS011;60181;53.258;6.932;2023-03-01T17:06:24;5.20;;;2.60;;
65658;SDS011;60181;53.258;6.932;2023-03-01T17:10:28;5.20;;;2.60;;
65658;SDS011;60181;53.258;6.932;2023-03-01T17:14:32;5.50;;;2.70;;
65658;SDS011;60181;53.258;6.932;2023-03-01T17:18:36;5.50;;;2.70;;
65658;SDS011;60181;53.258;6.932;2023-03-01T17:22:40;5.50;;;2.70;;
65658;SDS011;60181;53.258;6.932;2023-03-01T17:26:44;4.40;;;2.80;;
65658;SDS011;60181;53.258;6.932;2023-03-01T17:30:48;4.40;;;2.80;;
65658;SDS011;60181;53.258;6.932;2023-03-01T17:34:52;5.60;;;2.50;;
65658;SDS011;60181;53.258;6.932;2023-03-01T17:38:56;5.60;;;2.50;;
65658;SDS011;60181;53.258;6.932;2023-03-01T17:43:00;5.60;;;2.50;;
65658;SDS011;60181;53.258;6.932;2023-03-01T17:47:04;5.10;;;2.70;;
65658;SDS011;60181;53.258;6.932;2023-03-01T17:51:09;5.10;;;2.70;;
65658;SDS011;60181;53.258;6.932;2023-03-01T17:55:12;4.60;;;2.70;;
65658;SDS011;60181;53.258;6.932;2023-03-01T17:59:16;4.60;;;2.70;;
65658;SDS011;60181;53.258;6.932;2023-03-01T18:03:20;5.00;;;2.90;;
65658;SDS011;60181;53.258;6.932;2023-03-01T18:07:25;5.00;;;2.90;;
65658;SDS011;60181;53.258;6.932;2023-03-01T18:11:28;5.00;;;2.90;;
65658;SDS011;60181;53.258;6.932;2023-03-01T18:15:32;4.50;;;2.50;;
65658;SDS011;60181;53.258;6.932;2023-03-01T18:19:37;4.50;;;2.50;;
65658;SDS011;60181;53.258;6.932;2023-03-01T18:23:40;4.80;;;2.60;;
65658;SDS011;60181;53.258;6.932;2023-03-01T18:27:44;4.80;;;2.60;;
65658;SDS011;60181;53.258;6.932;2023-03-01T18:31:48;4.80;;;2.60;;
65658;SDS011;60181;53.258;6.932;2023-03-01T18:35:52;4.30;;;2.50;;
65658;SDS011;60181;53.258;6.932;2023-03-01T18:39:56;4.30;;;2.50;;
65658;SDS011;60181;53.258;6.932;2023-03-01T18:44:00;5.00;;;2.30;;
65658;SDS011;60181;53.258;6.932;2023-03-01T18:48:04;5.00;;;2.30;;
65658;SDS011;60181;53.258;6.932;2023-03-01T18:52:08;5.00;;;2.30;;
65658;SDS011;60181;53.258;6.932;2023-03-01T18:56:12;3.70;;;2.20;;
65658;SDS011;60181;53.258;6.932;2023-03-01T19:00:16;3.70;;;2.20;;
65658;SDS011;60181;53.258;6.932;2023-03-01T19:04:20;3.20;;;2.20;;
65658;SDS011;60181;53.258;6.932;2023-03-01T19:08:24;3.20;;;2.20;;
65658;SDS011;60181;53.258;6.932;2023-03-01T19:12:28;3.20;;;2.20;;
65658;SDS011;60181;53.258;6.932;2023-03-01T19:16:32;3.80;;;1.90;;
65658;SDS011;60181;53.258;6.932;2023-03-01T19:20:36;3.80;;;1.90;;
65658;SDS011;60181;53.258;6.932;2023-03-01T19:24:40;3.40;;;2.00;;
65658;SDS011;60181;53.258;6.932;2023-03-01T19:28:44;3.40;;;2.00;;
65658;SDS011;60181;53.258;6.932;2023-03-01T19:32:48;3.40;;;2.00;;
65658;SDS011;60181;53.258;6.932;2023-03-01T19:36:52;3.40;;;2.00;;
65658;SDS011;60181;53.258;6.932;2023-03-01T19:40:56;3.40;;;2.00;;
65658;SDS011;60181;53.258;6.932;2023-03-01T19:45:00;4.70;;;2.30;;
65658;SDS011;60181;53.258;6.932;2023-03-01T19:49:04;4.70;;;2.30;;
65658;SDS011;60181;53.258;6.932;2023-03-01T19:53:08;4.70;;;2.30;;
65658;SDS011;60181;53.258;6.932;2023-03-01T19:57:12;3.50;;;2.10;;
65658;SDS011;60181;53.258;6.932;2023-03-01T20:01:17;3.50;;;2.10;;
65658;SDS011;60181;53.258;6.932;2023-03-01T20:05:20;3.50;;;2.20;;
65658;SDS011;60181;53.258;6.932;2023-03-01T20:09:24;3.50;;;2.20;;
65658;SDS011;60181;53.258;6.932;2023-03-01T20:13:28;4.50;;;2.20;;
65658;SDS011;60181;53.258;6.932;2023-03-01T20:17:32;4.50;;;2.20;;
65658;SDS011;60181;53.258;6.932;2023-03-01T20:21:36;4.50;;;2.20;;
65658;SDS011;60181;53.258;6.932;2023-03-01T20:25:40;4.40;;;2.20;;
65658;SDS011;60181;53.258;6.932;2023-03-01T20:29:44;4.40;;;2.20;;
65658;SDS011;60181;53.258;6.932;2023-03-01T20:33:48;3.00;;;2.00;;
65658;SDS011;60181;53.258;6.932;2023-03-01T20:37:52;3.00;;;2.00;;
65658;SDS011;60181;53.258;6.932;2023-03-01T20:41:56;3.00;;;2.00;;
65658;SDS011;60181;53.258;6.932;2023-03-01T20:46:04;4.50;;;2.20;;
65658;SDS011;60181;53.258;6.932;2023-03-01T20:50:04;4.50;;;2.20;;
65658;SDS011;60181;53.258;6.932;2023-03-01T20:54:08;4.10;;;2.20;;
65658;SDS011;60181;53.258;6.932;2023-03-01T20:58:12;4.10;;;2.20;;
65658;SDS011;60181;53.258;6.932;2023-03-01T21:02:16;4.10;;;2.20;;
65658;SDS011;60181;53.258;6.932;2023-03-01T21:06:20;3.10;;;1.90;;
65658;SDS011;60181;53.258;6.932;2023-03-01T21:10:24;3.10;;;1.90;;
65658;SDS011;60181;53.258;6.932;2023-03-01T21:14:28;4.00;;;1.90;;
65658;SDS011;60181;53.258;6.932;2023-03-01T21:18:32;4.00;;;1.90;;
65658;SDS011;60181;53.258;6.932;2023-03-01T21:22:36;4.00;;;1.90;;
65658;SDS011;60181;53.258;6.932;2023-03-01T21:26:40;2.60;;;1.90;;
65658;SDS011;60181;53.258;6.932;2023-03-01T21:30:44;2.60;;;1.90;;
65658;SDS011;60181;53.258;6.932;2023-03-01T21:34:48;9.00;;;2.50;;
65658;SDS011;60181;53.258;6.932;2023-03-01T21:38:52;9.00;;;2.50;;
65658;SDS011;60181;53.258;6.932;2023-03-01T21:42:56;9.00;;;2.50;;
65658;SDS011;60181;53.258;6.932;2023-03-01T21:47:00;11.90;;;6.80;;
65658;SDS011;60181;53.258;6.932;2023-03-01T21:51:04;11.90;;;6.80;;
65658;SDS011;60181;53.258;6.932;2023-03-01T21:55:08;16.40;;;9.30;;
65658;SDS011;60181;53.258;6.932;2023-03-01T21:59:16;16.40;;;9.30;;
65658;SDS011;60181;53.258;6.932;2023-03-01T22:03:16;17.80;;;11.40;;
65658;SDS011;60181;53.258;6.932;2023-03-01T22:07:20;17.80;;;11.40;;
65658;SDS011;60181;53.258;6.932;2023-03-01T22:11:24;17.80;;;11.40;;
65658;SDS011;60181;53.258;6.932;2023-03-01T22:15:28;17.40;;;11.60;;
65658;SDS011;60181;53.258;6.932;2023-03-01T22:19:32;17.40;;;11.60;;
65658;SDS011;60181;53.258;6.932;2023-03-01T22:23:36;21.40;;;12.00;;
65658;SDS011;60181;53.258;6.932;2023-03-01T22:27:40;21.40;;;12.00;;
65658;SDS011;60181;53.258;6.932;2023-03-01T22:31:44;21.40;;;12.00;;
65658;SDS011;60181;53.258;6.932;2023-03-01T22:35:48;18.40;;;12.10;;
65658;SDS011;60181;53.258;6.932;2023-03-01T22:39:52;18.40;;;12.10;;
65658;SDS011;60181;53.258;6.932;2023-03-01T22:43:56;20.40;;;12.00;;
65658;SDS011;60181;53.258;6.932;2023-03-01T22:48:00;20.40;;;12.00;;
65658;SDS011;60181;53.258;6.932;2023-03-01T22:52:04;20.40;;;12.00;;
65658;SDS011;60181;53.258;6.932;2023-03-01T22:56:11;17.40;;;11.50;;
65658;SDS011;60181;53.258;6.932;2023-03-01T23:00:12;17.40;;;11.50;;
65658;SDS011;60181;53.258;6.932;2023-03-01T23:04:16;17.10;;;11.10;;
65658;SDS011;60181;53.258;6.932;2023-03-01T23:08:20;17.10;;;11.10;;
65658;SDS011;60181;53.258;6.932;2023-03-01T23:12:24;17.10;;;11.10;;
65658;SDS011;60181;53.258;6.932;2023-03-01T23:16:28;16.60;;;9.90;;
65658;SDS011;60181;53.258;6.932;2023-03-01T23:20:34;16.60;;;9.90;;
65658;SDS011;60181;53.258;6.932;2023-03-01T23:24:36;11.70;;;8.30;;
65658;SDS011;60181;53.258;6.932;2023-03-01T23:28:40;11.70;;;8.30;;
65658;SDS011;60181;53.258;6.932;2023-03-01T23:32:44;11.70;;;8.30;;
65658;SDS011;60181;53.258;6.932;2023-03-01T23:36:50;12.40;;;8.50;;
65658;SDS011;60181;53.258;6.932;2023-03-01T23:40:51;12.40;;;8.50;;
65658;SDS011;60181;53.258;6.932;2023-03-01T23:44:55;15.30;;;8.70;;
65658;SDS011;60181;53.258;6.932;2023-03-01T23:49:00;15.30;;;8.70;;
65658;SDS011;60181;53.258;6.932;2023-03-01T23:53:04;15.30;;;8.70;;
65658;SDS011;60181;53.258;6.932;2023-03-01T23:57:07;14.70;;;8.20;;
